Skip Navigation Links Skip Navigation Links

Current Weather

Phoenix Sky Harbor Intl, Phoenix, Ariz.

For information only: do not use for flight planning or navigation.
Latest weather
Observation time Thursday, November 21, 2019 2:51 PM MST
Local time Thursday, November 21, 2019 3:27 PM MST
Flight conditions Visual Meteorological Conditions
Winds
Wind direction East-Northeast (70°)
Wind speed 7 mph
Visibility 10 mi.
Sky condition
Ceiling unlimited
Cloud layer few clouds 3,000 ft.
Cloud layer few clouds 7,500 ft.
Cloud layer scattered clouds 10,000 ft.
Cloud layer scattered clouds 25,000 ft.
Temperature 61°F
Dewpoint 46°F
Altimeter 29.89 in.Hg
Derived measurements
Relative humidity 58%
Density altitude 1453 ft.
Sea-level pressure 29.86 in.Hg
Remarks
Automated weather observing station with precipitation discriminator.
METAR KPHX 212151Z 07006KT 10SM FEW030 FEW075 SCT100 SCT250 16/08 A2989 RMK AO2 SLP113 T01610078

Settings

Location code

InnerDrive.Weather 4.0.6770.0 Release CLR 4.0.30319.42000
Copyright ©2018 Inner Drive Technology. All rights reserved. Portions Copyright ©1986-2018 David Braverman.

Find weather

Site navigation


Skip Navigation Links

Place info

Page info

PayPal - The safer, easier way to pay online!

Return home.

Copyright ©2019 Inner Drive Technology. Purveyors of fine, hand-crafted computer software. Page printed 2019-11-21T22:27:01 UTC.